sensor_id;sensor_type;location;lat;lon;timestamp;temperature;humidity
484;DHT22;228;48.922;12.198;2023-11-21T05:14:04;9.80;99.10
484;DHT22;228;48.922;12.198;2023-11-21T05:16:31;10.10;98.40
484;DHT22;228;48.922;12.198;2023-11-21T05:18:58;10.30;97.50
484;DHT22;228;48.922;12.198;2023-11-21T05:21:27;10.30;97.50
484;DHT22;228;48.922;12.198;2023-11-21T05:23:53;10.20;97.30
484;DHT22;228;48.922;12.198;2023-11-21T05:26:19;10.00;98.00
484;DHT22;228;48.922;12.198;2023-11-21T05:28:45;10.00;97.90
484;DHT22;228;48.922;12.198;2023-11-21T05:31:11;9.80;99.00
484;DHT22;228;48.922;12.198;2023-11-21T05:33:37;9.80;98.70
484;DHT22;228;48.922;12.198;2023-11-21T05:36:03;9.60;99.50
484;DHT22;228;48.922;12.198;2023-11-21T05:38:29;9.80;99.40
484;DHT22;228;48.922;12.198;2023-11-21T05:40:55;9.60;99.50
484;DHT22;228;48.922;12.198;2023-11-21T05:43:21;10.00;98.40
484;DHT22;228;48.922;12.198;2023-11-21T05:45:47;10.30;97.90
484;DHT22;228;48.922;12.198;2023-11-21T05:48:13;10.20;97.40
484;DHT22;228;48.922;12.198;2023-11-21T05:50:38;10.40;97.30
484;DHT22;228;48.922;12.198;2023-11-21T09:19:50;12.40;94.60
484;DHT22;228;48.922;12.198;2023-11-21T09:24:43;12.80;93.80
484;DHT22;228;48.922;12.198;2023-11-21T09:27:09;12.70;93.00
484;DHT22;228;48.922;12.198;2023-11-21T09:29:36;12.80;93.30
484;DHT22;228;48.922;12.198;2023-11-21T09:32:07;13.00;92.80
484;DHT22;228;48.922;12.198;2023-11-21T10:54:11;14.20;84.60
484;DHT22;228;48.922;12.198;2023-11-21T10:56:39;14.50;84.20
484;DHT22;228;48.922;12.198;2023-11-21T10:59:10;14.10;83.50
484;DHT22;228;48.922;12.198;2023-11-21T11:09:17;14.00;85.80
484;DHT22;228;48.922;12.198;2023-11-21T11:11:44;14.00;86.30
484;DHT22;228;48.922;12.198;2023-11-21T11:14:11;14.20;86.20
484;DHT22;228;48.922;12.198;2023-11-21T11:16:41;14.40;85.50
484;DHT22;228;48.922;12.198;2023-11-21T11:19:09;14.00;83.20
484;DHT22;228;48.922;12.198;2023-11-21T11:27:27;13.80;85.30
484;DHT22;228;48.922;12.198;2023-11-21T11:38:35;14.00;81.50
484;DHT22;228;48.922;12.198;2023-11-21T11:41:03;13.40;84.30
484;DHT22;228;48.922;12.198;2023-11-21T11:43:30;13.10;87.50
484;DHT22;228;48.922;12.198;2023-11-21T11:45:59;13.10;87.50
484;DHT22;228;48.922;12.198;2023-11-21T11:48:25;13.40;89.60
484;DHT22;228;48.922;12.198;2023-11-21T11:51:06;13.00;87.30
484;DHT22;228;48.922;12.198;2023-11-21T11:53:41;12.30;90.30
484;DHT22;228;48.922;12.198;2023-11-21T11:56:33;12.40;90.80
484;DHT22;228;48.922;12.198;2023-11-21T11:59:02;13.10;90.10
484;DHT22;228;48.922;12.198;2023-11-21T12:01:30;13.40;89.50
484;DHT22;228;48.922;12.198;2023-11-21T12:06:43;13.50;87.00
484;DHT22;228;48.922;12.198;2023-11-21T12:09:21;14.00;86.20
484;DHT22;228;48.922;12.198;2023-11-21T12:11:48;14.10;85.90
484;DHT22;228;48.922;12.198;2023-11-21T12:14:15;14.40;86.10
484;DHT22;228;48.922;12.198;2023-11-21T12:16:41;14.50;83.20
484;DHT22;228;48.922;12.198;2023-11-21T12:19:12;13.50;82.80
484;DHT22;228;48.922;12.198;2023-11-21T12:21:38;13.40;86.10
484;DHT22;228;48.922;12.198;2023-11-21T12:24:07;13.30;86.30
484;DHT22;228;48.922;12.198;2023-11-21T12:26:40;13.50;84.60
484;DHT22;228;48.922;12.198;2023-11-21T12:29:06;13.60;84.00
484;DHT22;228;48.922;12.198;2023-11-21T12:31:34;13.20;84.50
484;DHT22;228;48.922;12.198;2023-11-21T12:34:03;13.60;85.00
484;DHT22;228;48.922;12.198;2023-11-21T12:36:30;14.00;83.50
484;DHT22;228;48.922;12.198;2023-11-21T12:38:56;13.50;83.20
484;DHT22;228;48.922;12.198;2023-11-21T12:41:22;13.20;86.60
484;DHT22;228;48.922;12.198;2023-11-21T12:43:48;13.50;87.00
484;DHT22;228;48.922;12.198;2023-11-21T12:46:15;13.90;85.30
484;DHT22;228;48.922;12.198;2023-11-21T12:48:41;14.20;84.30
484;DHT22;228;48.922;12.198;2023-11-21T12:51:12;14.30;82.70
484;DHT22;228;48.922;12.198;2023-11-21T12:53:40;14.30;82.20
484;DHT22;228;48.922;12.198;2023-11-21T12:56:07;13.60;83.30
484;DHT22;228;48.922;12.198;2023-11-21T12:58:38;13.20;85.30
484;DHT22;228;48.922;12.198;2023-11-21T13:01:06;13.60;82.90
484;DHT22;228;48.922;12.198;2023-11-21T13:03:40;13.60;82.00
484;DHT22;228;48.922;12.198;2023-11-21T13:06:08;13.40;83.40
484;DHT22;228;48.922;12.198;2023-11-21T13:08:34;13.70;82.70
484;DHT22;228;48.922;12.198;2023-11-21T13:11:00;13.70;81.80
484;DHT22;228;48.922;12.198;2023-11-21T13:13:29;13.90;81.60
484;DHT22;228;48.922;12.198;2023-11-21T13:16:02;13.80;81.30
484;DHT22;228;48.922;12.198;2023-11-21T13:18:31;13.70;81.90
484;DHT22;228;48.922;12.198;2023-11-21T13:21:01;13.80;82.10
484;DHT22;228;48.922;12.198;2023-11-21T13:23:29;13.50;83.00
484;DHT22;228;48.922;12.198;2023-11-21T13:25:57;13.60;83.00
484;DHT22;228;48.922;12.198;2023-11-21T13:28:23;13.00;83.90
484;DHT22;228;48.922;12.198;2023-11-21T13:30:53;12.90;85.10
484;DHT22;228;48.922;12.198;2023-11-21T13:33:19;13.00;86.60
484;DHT22;228;48.922;12.198;2023-11-21T13:35:48;13.30;85.80
484;DHT22;228;48.922;12.198;2023-11-21T13:38:16;13.30;85.00
484;DHT22;228;48.922;12.198;2023-11-21T13:40:48;13.40;85.30
484;DHT22;228;48.922;12.198;2023-11-21T13:43:19;13.70;83.90
484;DHT22;228;48.922;12.198;2023-11-21T13:45:48;13.60;83.60
484;DHT22;228;48.922;12.198;2023-11-21T13:48:43;13.70;82.80
484;DHT22;228;48.922;12.198;2023-11-21T13:51:23;13.60;82.80
484;DHT22;228;48.922;12.198;2023-11-21T13:54:02;13.20;84.50
484;DHT22;228;48.922;12.198;2023-11-21T13:56:27;13.30;84.80
484;DHT22;228;48.922;12.198;2023-11-21T13:58:55;13.20;84.00
484;DHT22;228;48.922;12.198;2023-11-21T14:01:26;13.30;83.90
484;DHT22;228;48.922;12.198;2023-11-21T14:04:00;13.40;84.00
484;DHT22;228;48.922;12.198;2023-11-21T14:06:35;13.20;84.70
484;DHT22;228;48.922;12.198;2023-11-21T14:09:12;12.60;86.50
484;DHT22;228;48.922;12.198;2023-11-21T14:11:57;12.70;88.00
484;DHT22;228;48.922;12.198;2023-11-21T14:14:27;12.80;88.00
484;DHT22;228;48.922;12.198;2023-11-21T14:16:56;12.90;88.20
484;DHT22;228;48.922;12.198;2023-11-21T14:19:22;12.80;88.50
484;DHT22;228;48.922;12.198;2023-11-21T14:21:53;12.60;88.70
484;DHT22;228;48.922;12.198;2023-11-21T14:24:19;12.70;88.80
484;DHT22;228;48.922;12.198;2023-11-21T14:26:46;12.70;89.00
484;DHT22;228;48.922;12.198;2023-11-21T14:29:13;13.00;87.70
484;DHT22;228;48.922;12.198;2023-11-21T14:31:46;13.00;87.40
484;DHT22;228;48.922;12.198;2023-11-21T14:34:11;12.90;87.20
484;DHT22;228;48.922;12.198;2023-11-21T14:36:40;12.90;87.40
484;DHT22;228;48.922;12.198;2023-11-21T14:39:06;13.20;86.40
484;DHT22;228;48.922;12.198;2023-11-21T14:41:35;13.30;85.40
484;DHT22;228;48.922;12.198;2023-11-21T14:44:01;13.30;85.60
484;DHT22;228;48.922;12.198;2023-11-21T14:46:30;13.30;85.10
484;DHT22;228;48.922;12.198;2023-11-21T14:48:56;13.30;85.30
484;DHT22;228;48.922;12.198;2023-11-21T14:51:28;13.30;85.00
484;DHT22;228;48.922;12.198;2023-11-21T14:53:58;13.30;85.50
484;DHT22;228;48.922;12.198;2023-11-21T14:56:32;13.30;85.20
484;DHT22;228;48.922;12.198;2023-11-21T14:59:03;13.00;85.80
484;DHT22;228;48.922;12.198;2023-11-21T15:01:38;13.10;86.20
484;DHT22;228;48.922;12.198;2023-11-21T15:04:11;13.00;85.80
484;DHT22;228;48.922;12.198;2023-11-21T15:06:49;12.50;87.80
484;DHT22;228;48.922;12.198;2023-11-21T15:09:18;12.80;87.70
484;DHT22;228;48.922;12.198;2023-11-21T15:11:44;12.80;88.50
484;DHT22;228;48.922;12.198;2023-11-21T15:14:10;12.50;90.30
484;DHT22;228;48.922;12.198;2023-11-21T15:16:39;12.40;91.00
484;DHT22;228;48.922;12.198;2023-11-21T15:19:08;12.30;91.60
484;DHT22;228;48.922;12.198;2023-11-21T15:21:38;12.30;91.80
484;DHT22;228;48.922;12.198;2023-11-21T15:24:05;12.40;91.80
484;DHT22;228;48.922;12.198;2023-11-21T15:26:32;12.30;92.10
484;DHT22;228;48.922;12.198;2023-11-21T15:28:58;12.40;92.10
484;DHT22;228;48.922;12.198;2023-11-21T15:31:24;12.50;91.80
484;DHT22;228;48.922;12.198;2023-11-21T15:33:52;12.60;91.90
484;DHT22;228;48.922;12.198;2023-11-21T15:36:20;12.50;91.90
484;DHT22;228;48.922;12.198;2023-11-21T15:38:46;12.40;92.20
484;DHT22;228;48.922;12.198;2023-11-21T15:41:12;12.40;92.20
484;DHT22;228;48.922;12.198;2023-11-21T15:43:39;12.20;92.80
484;DHT22;228;48.922;12.198;2023-11-21T15:46:05;12.40;92.80
484;DHT22;228;48.922;12.198;2023-11-21T15:48:34;12.40;92.50
484;DHT22;228;48.922;12.198;2023-11-21T15:51:03;12.20;92.70
484;DHT22;228;48.922;12.198;2023-11-21T15:53:31;12.40;92.70
484;DHT22;228;48.922;12.198;2023-11-21T15:55:58;12.30;92.60
484;DHT22;228;48.922;12.198;2023-11-21T15:58:24;12.30;92.80
484;DHT22;228;48.922;12.198;2023-11-21T16:00:51;12.20;92.90
484;DHT22;228;48.922;12.198;2023-11-21T16:03:18;12.20;93.20
484;DHT22;228;48.922;12.198;2023-11-21T16:05:44;12.10;93.30
484;DHT22;228;48.922;12.198;2023-11-21T16:08:10;12.10;93.30
484;DHT22;228;48.922;12.198;2023-11-21T16:10:36;12.30;93.00
484;DHT22;228;48.922;12.198;2023-11-21T16:13:02;12.20;92.90
484;DHT22;228;48.922;12.198;2023-11-21T16:15:28;11.90;93.20
484;DHT22;228;48.922;12.198;2023-11-21T16:17:54;12.00;93.20
484;DHT22;228;48.922;12.198;2023-11-21T16:20:21;12.10;92.90
484;DHT22;228;48.922;12.198;2023-11-21T16:22:47;12.00;92.70
484;DHT22;228;48.922;12.198;2023-11-21T16:25:14;12.10;92.50
484;DHT22;228;48.922;12.198;2023-11-21T16:27:40;12.10;92.20
484;DHT22;228;48.922;12.198;2023-11-21T16:30:08;12.00;92.40
484;DHT22;228;48.922;12.198;2023-11-21T16:32:35;12.00;92.30
484;DHT22;228;48.922;12.198;2023-11-21T16:35:03;12.20;92.30
484;DHT22;228;48.922;12.198;2023-11-21T16:37:29;12.00;92.50
484;DHT22;228;48.922;12.198;2023-11-21T16:39:55;12.00;92.60
484;DHT22;228;48.922;12.198;2023-11-21T16:42:21;11.90;92.50
484;DHT22;228;48.922;12.198;2023-11-21T16:44:49;11.90;92.50
484;DHT22;228;48.922;12.198;2023-11-21T16:47:16;11.80;92.70
484;DHT22;228;48.922;12.198;2023-11-21T16:49:44;11.60;92.90
484;DHT22;228;48.922;12.198;2023-11-21T16:52:10;11.40;93.00
484;DHT22;228;48.922;12.198;2023-11-21T16:54:36;11.30;93.30
484;DHT22;228;48.922;12.198;2023-11-21T16:57:03;11.30;93.30
484;DHT22;228;48.922;12.198;2023-11-21T16:59:31;11.10;93.30
484;DHT22;228;48.922;12.198;2023-11-21T17:01:57;11.10;93.40
484;DHT22;228;48.922;12.198;2023-11-21T17:04:23;11.10;93.40
484;DHT22;228;48.922;12.198;2023-11-21T17:06:49;11.10;93.40
484;DHT22;228;48.922;12.198;2023-11-21T17:09:16;11.00;93.40
484;DHT22;228;48.922;12.198;2023-11-21T17:11:48;11.00;94.00
484;DHT22;228;48.922;12.198;2023-11-21T17:14:16;11.00;94.20
484;DHT22;228;48.922;12.198;2023-11-21T17:16:42;11.00;94.30
484;DHT22;228;48.922;12.198;2023-11-21T17:19:10;10.90;94.40
484;DHT22;228;48.922;12.198;2023-11-21T17:21:36;11.00;94.40
484;DHT22;228;48.922;12.198;2023-11-21T17:24:02;10.90;94.50
484;DHT22;228;48.922;12.198;2023-11-21T17:26:28;10.80;94.80
484;DHT22;228;48.922;12.198;2023-11-21T17:28:54;10.90;94.90
484;DHT22;228;48.922;12.198;2023-11-21T17:31:21;11.00;95.10
484;DHT22;228;48.922;12.198;2023-11-21T17:33:48;11.10;94.90
484;DHT22;228;48.922;12.198;2023-11-21T17:36:14;11.00;94.90
484;DHT22;228;48.922;12.198;2023-11-21T17:38:41;10.90;95.00
484;DHT22;228;48.922;12.198;2023-11-21T17:41:08;10.80;95.50
484;DHT22;228;48.922;12.198;2023-11-21T17:43:39;10.70;95.90
484;DHT22;228;48.922;12.198;2023-11-21T17:46:09;10.70;95.80
484;DHT22;228;48.922;12.198;2023-11-21T17:48:35;11.00;95.70
484;DHT22;228;48.922;12.198;2023-11-21T17:51:05;11.00;95.20
484;DHT22;228;48.922;12.198;2023-11-21T17:53:31;11.10;95.10
484;DHT22;228;48.922;12.198;2023-11-21T17:55:57;11.20;94.80
484;DHT22;228;48.922;12.198;2023-11-21T17:58:23;11.00;94.70
484;DHT22;228;48.922;12.198;2023-11-21T18:00:48;10.80;95.30
484;DHT22;228;48.922;12.198;2023-11-21T18:03:14;10.80;95.50
484;DHT22;228;48.922;12.198;2023-11-21T18:05:40;10.90;95.20
484;DHT22;228;48.922;12.198;2023-11-21T18:08:06;10.60;95.50
484;DHT22;228;48.922;12.198;2023-11-21T18:10:32;10.40;96.20
484;DHT22;228;48.922;12.198;2023-11-21T18:12:58;10.20;97.00
484;DHT22;228;48.922;12.198;2023-11-21T18:15:24;10.10;96.80
484;DHT22;228;48.922;12.198;2023-11-21T18:17:50;10.30;97.10
484;DHT22;228;48.922;12.198;2023-11-21T18:20:16;10.40;96.90
484;DHT22;228;48.922;12.198;2023-11-21T18:22:42;10.60;96.70
484;DHT22;228;48.922;12.198;2023-11-21T18:25:08;10.20;96.60
484;DHT22;228;48.922;12.198;2023-11-21T18:27:34;10.00;97.00
484;DHT22;228;48.922;12.198;2023-11-21T18:30:01;10.20;97.20
484;DHT22;228;48.922;12.198;2023-11-21T18:32:28;10.50;96.80
484;DHT22;228;48.922;12.198;2023-11-21T18:34:54;10.60;95.90
484;DHT22;228;48.922;12.198;2023-11-21T18:37:22;10.60;96.10
484;DHT22;228;48.922;12.198;2023-11-21T18:39:51;10.70;95.60
484;DHT22;228;48.922;12.198;2023-11-21T18:42:17;10.90;94.80
484;DHT22;228;48.922;12.198;2023-11-21T18:44:47;10.60;95.40
484;DHT22;228;48.922;12.198;2023-11-21T18:47:13;10.40;95.90
484;DHT22;228;48.922;12.198;2023-11-21T18:49:42;10.40;95.60
484;DHT22;228;48.922;12.198;2023-11-21T18:52:08;10.50;95.70
484;DHT22;228;48.922;12.198;2023-11-21T18:54:36;10.70;95.90
484;DHT22;228;48.922;12.198;2023-11-21T18:57:02;10.40;95.60
484;DHT22;228;48.922;12.198;2023-11-21T18:59:28;10.20;96.20
484;DHT22;228;48.922;12.198;2023-11-21T19:01:54;10.40;95.90
484;DHT22;228;48.922;12.198;2023-11-21T19:04:20;10.40;96.00
484;DHT22;228;48.922;12.198;2023-11-21T19:06:50;10.40;95.90
484;DHT22;228;48.922;12.198;2023-11-21T19:09:16;10.20;95.90
484;DHT22;228;48.922;12.198;2023-11-21T19:11:42;10.20;96.40
484;DHT22;228;48.922;12.198;2023-11-21T19:14:09;10.30;96.20
484;DHT22;228;48.922;12.198;2023-11-21T19:16:35;10.30;96.00
484;DHT22;228;48.922;12.198;2023-11-21T19:19:04;10.10;96.50
484;DHT22;228;48.922;12.198;2023-11-21T19:21:30;10.10;96.70
484;DHT22;228;48.922;12.198;2023-11-21T19:23:56;10.10;96.50
484;DHT22;228;48.922;12.198;2023-11-21T19:26:22;10.00;96.70
484;DHT22;228;48.922;12.198;2023-11-21T19:28:48;10.00;96.60
484;DHT22;228;48.922;12.198;2023-11-21T19:31:18;10.20;96.10
484;DHT22;228;48.922;12.198;2023-11-21T19:33:48;10.00;96.50
484;DHT22;228;48.922;12.198;2023-11-21T19:36:15;9.80;97.40
484;DHT22;228;48.922;12.198;2023-11-21T19:38:42;9.60;98.00
484;DHT22;228;48.922;12.198;2023-11-21T19:41:18;9.70;97.50
484;DHT22;228;48.922;12.198;2023-11-21T19:43:46;10.00;96.50
484;DHT22;228;48.922;12.198;2023-11-21T19:46:15;9.90;96.90
484;DHT22;228;48.922;12.198;2023-11-21T19:48:43;9.80;97.00
484;DHT22;228;48.922;12.198;2023-11-21T19:51:09;9.70;97.40
484;DHT22;228;48.922;12.198;2023-11-21T19:53:38;9.60;97.50
484;DHT22;228;48.922;12.198;2023-11-21T19:56:04;9.60;97.40
484;DHT22;228;48.922;12.198;2023-11-21T19:58:37;9.60;97.70
484;DHT22;228;48.922;12.198;2023-11-21T20:01:03;9.70;97.50
484;DHT22;228;48.922;12.198;2023-11-21T20:03:29;9.60;97.40
484;DHT22;228;48.922;12.198;2023-11-21T20:05:55;9.70;97.70
484;DHT22;228;48.922;12.198;2023-11-21T20:08:22;9.60;97.70
484;DHT22;228;48.922;12.198;2023-11-21T20:10:48;9.50;98.00
484;DHT22;228;48.922;12.198;2023-11-21T20:13:14;9.30;98.30
484;DHT22;228;48.922;12.198;2023-11-21T20:15:40;9.10;98.70
484;DHT22;228;48.922;12.198;2023-11-21T20:18:06;9.00;99.30
484;DHT22;228;48.922;12.198;2023-11-21T20:20:33;8.90;99.30
484;DHT22;228;48.922;12.198;2023-11-21T20:22:59;9.20;99.40
484;DHT22;228;48.922;12.198;2023-11-21T20:25:28;9.40;98.60
484;DHT22;228;48.922;12.198;2023-11-21T20:27:55;9.60;98.10
484;DHT22;228;48.922;12.198;2023-11-21T20:30:22;9.40;98.50
484;DHT22;228;48.922;12.198;2023-11-21T20:32:54;9.50;98.10
484;DHT22;228;48.922;12.198;2023-11-21T20:35:20;9.20;98.60
484;DHT22;228;48.922;12.198;2023-11-21T20:37:47;9.10;98.90
484;DHT22;228;48.922;12.198;2023-11-21T20:40:13;9.20;99.20
484;DHT22;228;48.922;12.198;2023-11-21T20:42:39;9.10;99.10
484;DHT22;228;48.922;12.198;2023-11-21T20:45:09;8.90;99.60
484;DHT22;228;48.922;12.198;2023-11-21T20:47:41;8.90;99.60
484;DHT22;228;48.922;12.198;2023-11-21T20:50:10;9.20;99.30
484;DHT22;228;48.922;12.198;2023-11-21T20:52:37;9.10;99.20
484;DHT22;228;48.922;12.198;2023-11-21T20:55:03;8.90;99.20
484;DHT22;228;48.922;12.198;2023-11-21T20:57:30;8.80;99.90
484;DHT22;228;48.922;12.198;2023-11-21T20:59:56;8.80;99.90
484;DHT22;228;48.922;12.198;2023-11-21T21:02:22;8.80;99.90
484;DHT22;228;48.922;12.198;2023-11-21T21:04:48;8.90;99.90
484;DHT22;228;48.922;12.198;2023-11-21T21:07:14;9.00;99.80
484;DHT22;228;48.922;12.198;2023-11-21T21:09:40;8.90;99.80
484;DHT22;228;48.922;12.198;2023-11-21T21:12:07;8.70;99.90
484;DHT22;228;48.922;12.198;2023-11-21T21:14:33;8.90;99.90
484;DHT22;228;48.922;12.198;2023-11-21T21:16:59;8.90;99.60
484;DHT22;228;48.922;12.198;2023-11-21T21:19:27;9.00;99.70
484;DHT22;228;48.922;12.198;2023-11-21T21:21:53;9.20;99.20
484;DHT22;228;48.922;12.198;2023-11-21T21:24:19;9.40;98.80
484;DHT22;228;48.922;12.198;2023-11-21T21:26:45;9.70;98.70
484;DHT22;228;48.922;12.198;2023-11-21T21:29:11;9.80;98.00
484;DHT22;228;48.922;12.198;2023-11-21T21:31:37;9.90;97.90
484;DHT22;228;48.922;12.198;2023-11-21T21:34:03;10.10;97.00
484;DHT22;228;48.922;12.198;2023-11-21T21:36:29;10.10;96.50
484;DHT22;228;48.922;12.198;2023-11-21T21:38:57;9.80;97.60
484;DHT22;228;48.922;12.198;2023-11-21T21:41:23;9.80;97.30
484;DHT22;228;48.922;12.198;2023-11-21T21:43:50;9.30;98.20
484;DHT22;228;48.922;12.198;2023-11-21T21:46:18;9.00;98.90
484;DHT22;228;48.922;12.198;2023-11-21T21:48:44;8.90;99.10
484;DHT22;228;48.922;12.198;2023-11-21T21:51:17;8.50;99.90
484;DHT22;228;48.922;12.198;2023-11-21T21:53:44;8.50;99.90
484;DHT22;228;48.922;12.198;2023-11-21T21:56:10;8.50;99.10
484;DHT22;228;48.922;12.198;2023-11-21T21:58:37;8.30;99.40
484;DHT22;228;48.922;12.198;2023-11-21T22:01:03;8.30;99.10
484;DHT22;228;48.922;12.198;2023-11-21T22:03:29;8.20;98.70
484;DHT22;228;48.922;12.198;2023-11-21T22:05:55;8.40;99.00
484;DHT22;228;48.922;12.198;2023-11-21T22:08:27;8.60;98.70
484;DHT22;228;48.922;12.198;2023-11-21T22:10:53;8.40;98.10
484;DHT22;228;48.922;12.198;2023-11-21T22:13:19;8.40;97.80
